Time;durP1;ratioP1;P1;durP2;ratioP2;P2;SDS_P1;SDS_P2;PMS_P1;PMS_P2;Temp;Humidity;BMP_temperature;BMP_pressure;BME280_temperature;BME280_humidity;BME280_pressure;Samples;Min_cycle;Max_cycle;Signal;HPM_P1;HPM_P2
2023/04/12 00:00:55;;;;;;;3.50;0.38;;;7.80;99.90;;;;;;5956403;22;15111018;-81
2023/04/12 00:04:06;;;;;;;1.70;0.70;;;7.70;99.90;;;;;;6248445;22;20215;31
2023/04/12 00:06:48;;;;;;;3.28;0.73;;;7.70;99.90;;;;;;6148669;23;20029;-81
2023/04/12 00:13:10;;;;;;;2.25;0.65;;;7.70;99.90;;;;;;6310407;22;20003;31
2023/04/12 00:15:40;;;;;;;3.08;1.00;;;7.70;99.90;;;;;;6168413;23;20022;-79
2023/04/12 00:21:32;;;;;;;3.17;0.93;;;7.60;99.90;;;;;;6224782;22;20869;31
2023/04/12 00:24:00;;;;;;;3.50;0.98;;;7.60;99.90;;;;;;6177069;22;20026;-80
2023/04/12 00:26:36;;;;;;;3.58;1.35;;;7.60;99.90;;;;;;6212293;22;20030;-81
2023/04/12 00:29:54;;;;;;;4.78;1.48;;;7.50;99.90;;;;;;6191531;22;20019;-81
2023/04/12 00:33:11;;;;;;;2.65;1.65;;;7.50;99.90;;;;;;6234876;22;20028;31
2023/04/12 00:35:56;;;;;;;2.72;1.50;;;7.40;99.90;;;;;;6164635;23;20021;-80
2023/04/12 00:38:35;;;;;;;4.30;1.75;;;7.40;99.90;;;;;;6255838;22;20019;-80
2023/04/12 00:41:05;;;;;;;3.20;2.50;;;7.40;99.90;;;;;;6249771;22;20031;-78
2023/04/12 00:43:34;;;;;;;3.80;1.60;;;7.50;99.90;;;;;;6257328;22;20020;-80
2023/04/12 00:46:01;;;;;;;3.17;1.38;;;7.40;99.90;;;;;;6235975;22;20021;-81
2023/04/12 00:49:55;;;;;;;2.85;1.38;;;7.30;99.90;;;;;;6222414;22;20046;31
2023/04/12 00:56:17;;;;;;;4.45;2.00;;;7.30;99.90;;;;;;6259915;22;20097;-80
2023/04/12 00:58:53;;;;;;;2.90;1.90;;;7.30;99.90;;;;;;6286888;22;20025;-81
2023/04/12 01:01:22;;;;;;;3.88;2.20;;;7.20;99.90;;;;;;6220248;22;20031;-80
2023/04/12 01:07:33;;;;;;;3.75;1.77;;;7.20;99.90;;;;;;6223836;22;20036;-80
2023/04/12 01:16:43;;;;;;;5.28;2.72;;;7.20;99.90;;;;;;6184793;22;20131;-81
2023/04/12 01:29:48;;;;;;;4.03;2.22;;;7.00;99.90;;;;;;6212443;22;20031;-81
2023/04/12 01:32:29;;;;;;;5.22;2.45;;;7.40;99.90;;;;;;6250141;22;20012;-79
2023/04/12 01:35:50;;;;;;;3.83;1.98;;;7.00;99.90;;;;;;6236540;23;20058;-80
2023/04/12 01:41:21;;;;;;;4.38;2.58;;;6.90;99.90;;;;;;6271368;22;20030;-80
2023/04/12 01:43:51;;;;;;;4.45;2.63;;;6.90;99.90;;;;;;6235050;22;20114;-80
2023/04/12 01:54:02;;;;;;;3.97;2.25;;;6.90;99.90;;;;;;6237977;22;20011;-81
2023/04/12 01:59:58;;;;;;;4.57;2.55;;;6.90;99.90;;;;;;6231031;22;20103;31
2023/04/12 02:02:31;;;;;;;5.60;3.28;;;6.90;99.90;;;;;;6119147;22;20020;-81
2023/04/12 02:11:50;;;;;;;5.70;2.80;;;6.80;99.90;;;;;;6223619;22;20117;-80
2023/04/12 02:18:00;;;;;;;4.85;2.80;;;6.80;99.90;;;;;;6233039;22;20043;-81
2023/04/12 02:21:17;;;;;;;5.70;2.40;;;6.80;99.90;;;;;;6170894;23;20839;31
2023/04/12 02:34:25;;;;;;;5.22;3.13;;;6.70;99.90;;;;;;6278792;22;20019;-81
2023/04/12 02:37:50;;;;;;;5.55;3.15;;;6.60;99.90;;;;;;6281870;22;20014;31
2023/04/12 02:41:00;;;;;;;5.30;3.22;;;6.50;99.90;;;;;;6249799;22;20097;-81
2023/04/12 02:44:05;;;;;;;4.30;2.75;;;6.80;99.90;;;;;;6236968;22;20072;-81
2023/04/12 04:22:52;;;;;;;8.40;3.08;;;6.20;99.90;;;;;;6229405;22;21081;-82
2023/04/12 07:00:44;;;;;;;2.40;0.80;;;10.20;83.60;;;;;;6209100;22;20020;-79
2023/04/12 07:23:51;;;;;;;4.03;1.20;;;10.90;80.30;;;;;;6209955;22;20051;-81
2023/04/12 07:30:14;;;;;;;3.55;1.52;;;11.00;79.30;;;;;;6199060;22;20016;31
2023/04/12 07:40:08;;;;;;;1.67;0.95;;;11.20;78.90;;;;;;6249736;22;20024;-80
2023/04/12 08:05:52;;;;;;;3.03;1.23;;;11.70;74.90;;;;;;6211894;22;20031;-81
2023/04/12 08:29:02;;;;;;;3.40;0.95;;;12.20;71.70;;;;;;6291407;22;20034;-81
2023/04/12 08:35:39;;;;;;;1.70;0.85;;;12.40;73.10;;;;;;6200730;22;19919;-82
2023/04/12 08:45:48;;;;;;;3.60;1.60;;;12.20;73.60;;;;;;6229852;23;20024;-81
2023/04/12 08:48:17;;;;;;;1.90;1.02;;;12.50;74.00;;;;;;6178559;23;20063;-80
2023/04/12 08:58:49;;;;;;;5.85;1.20;;;12.70;72.20;;;;;;6289174;22;20011;-81
2023/04/12 09:02:23;;;;;;;2.53;1.17;;;12.60;72.60;;;;;;6320547;22;20022;-81
2023/04/12 09:04:57;;;;;;;1.15;0.70;;;12.50;72.60;;;;;;6231847;23;20032;-81
2023/04/12 09:11:44;;;;;;;3.33;1.52;;;12.70;72.00;;;;;;6171426;22;20021;-78
2023/04/12 09:21:17;;;;;;;3.55;0.90;;;12.90;71.20;;;;;;6217317;22;20027;-81
2023/04/12 09:24:00;;;;;;;2.97;0.90;;;13.10;71.80;;;;;;6238853;22;20336;-80
2023/04/12 09:26:29;;;;;;;2.55;1.20;;;13.00;70.20;;;;;;6238931;22;20657;-81
2023/04/12 09:28:56;;;;;;;2.90;1.60;;;12.40;69.80;;;;;;6243773;22;20023;-81
2023/04/12 09:31:23;;;;;;;3.25;1.23;;;13.10;71.20;;;;;;6239945;22;20054;-81
2023/04/12 09:33:51;;;;;;;4.15;1.20;;;13.40;71.20;;;;;;6264746;22;20027;-82
2023/04/12 09:36:18;;;;;;;2.50;1.00;;;13.30;71.70;;;;;;6240910;22;20046;-81
2023/04/12 09:39:00;;;;;;;2.42;1.10;;;13.60;71.00;;;;;;6240444;22;20030;-80
2023/04/12 09:41:30;;;;;;;2.42;1.30;;;13.30;69.70;;;;;;6242073;22;20617;-81
2023/04/12 09:43:58;;;;;;;1.30;0.98;;;13.60;69.90;;;;;;6238434;22;20027;-82
2023/04/12 09:46:26;;;;;;;2.35;0.93;;;13.50;68.80;;;;;;6238035;22;20046;-82
2023/04/12 09:48:55;;;;;;;2.20;1.02;;;13.40;68.10;;;;;;6236247;22;20027;-82
2023/04/12 09:51:32;;;;;;;2.78;1.10;;;13.70;68.50;;;;;;6238176;22;20053;-81
2023/04/12 09:54:02;;;;;;;1.27;0.70;;;14.10;68.70;;;;;;6239392;22;20410;-81
2023/04/12 09:56:31;;;;;;;3.40;0.85;;;14.40;67.90;;;;;;6254075;22;20023;-79
2023/04/12 09:59:01;;;;;;;2.00;1.00;;;13.90;67.40;;;;;;6207135;22;20465;-81
2023/04/12 10:01:35;;;;;;;2.35;1.40;;;13.60;67.50;;;;;;6211840;22;20047;-82
2023/04/12 10:04:07;;;;;;;3.95;1.05;;;13.40;68.30;;;;;;6207445;22;20423;-82
2023/04/12 10:06:36;;;;;;;;;;;13.70;67.90;;;;;;6208898;22;20544;-81
2023/04/12 10:09:05;;;;;;;1.60;0.90;;;13.90;67.80;;;;;;6211719;22;20322;-79
2023/04/12 10:11:33;;;;;;;3.17;1.70;;;13.90;66.40;;;;;;6208839;22;20358;-80
2023/04/12 10:14:05;;;;;;;1.73;0.88;;;14.00;65.60;;;;;;6208604;22;20362;-81
2023/04/12 10:16:33;;;;;;;2.53;0.82;;;14.00;65.80;;;;;;6235028;22;20474;-80
2023/04/12 10:19:02;;;;;;;2.58;0.70;;;14.30;64.60;;;;;;6212617;22;20461;-79
2023/04/12 10:21:30;;;;;;;3.88;0.88;;;14.30;64.30;;;;;;6207681;22;20027;-79
2023/04/12 10:23:58;;;;;;;1.55;0.93;;;14.60;64.10;;;;;;6261811;22;20022;-80
2023/04/12 10:26:25;;;;;;;2.20;0.90;;;14.00;62.90;;;;;;6235473;22;20015;-81
2023/04/12 10:29:24;;;;;;;2.08;1.20;;;14.00;63.80;;;;;;6210447;22;20031;-82
2023/04/12 10:31:52;;;;;;;2.38;1.40;;;14.10;62.40;;;;;;6234950;22;20449;-81
2023/04/12 10:34:26;;;;;;;2.88;1.00;;;14.30;64.10;;;;;;6209233;22;20023;-80
2023/04/12 10:36:56;;;;;;;4.10;0.98;;;14.50;63.00;;;;;;6207337;22;20022;-79
2023/04/12 10:39:51;;;;;;;1.73;0.65;;;14.50;64.00;;;;;;6206600;22;20024;-81
2023/04/12 10:42:24;;;;;;;1.90;0.50;;;14.60;63.00;;;;;;6238386;22;20746;-81
2023/04/12 10:45:15;;;;;;;3.22;0.63;;;14.60;61.60;;;;;;6206615;22;20024;-82
2023/04/12 10:47:48;;;;;;;1.45;0.65;;;14.60;61.30;;;;;;6234555;22;20024;-82
2023/04/12 10:50:30;;;;;;;1.80;0.80;;;14.50;60.70;;;;;;6234391;22;20028;-80
2023/04/12 10:53:11;;;;;;;1.60;0.50;;;14.70;60.50;;;;;;6213522;22;20032;-80
2023/04/12 10:55:40;;;;;;;6.03;1.80;;;14.80;57.20;;;;;;6207862;22;20081;-81
2023/04/12 10:58:07;;;;;;;9.43;6.75;;;15.00;58.40;;;;;;6208229;22;20035;-82
2023/04/12 11:00:57;;;;;;;2.20;0.52;;;14.90;57.50;;;;;;6209510;22;20081;-79
2023/04/12 11:03:27;;;;;;;2.75;0.88;;;14.80;58.20;;;;;;6209192;22;20461;-80
2023/04/12 11:06:01;;;;;;;1.30;0.70;;;14.60;56.40;;;;;;6215148;22;20083;-80
2023/04/12 11:09:24;;;;;;;3.72;0.63;;;14.90;58.70;;;;;;6247543;22;20477;-81
2023/04/12 11:11:57;;;;;;;1.60;0.30;;;15.10;57.30;;;;;;6214528;22;20439;-82
2023/04/12 11:14:37;;;;;;;2.92;0.93;;;15.00;54.40;;;;;;6211570;22;20031;-82
2023/04/12 11:17:13;;;;;;;1.88;0.88;;;15.00;54.50;;;;;;6214646;22;20460;-80
2023/04/12 11:19:41;;;;;;;2.83;0.63;;;14.70;55.10;;;;;;6215013;22;20390;-82
2023/04/12 11:22:11;;;;;;;2.05;0.60;;;14.70;57.30;;;;;;6242578;22;20113;-80
2023/04/12 11:24:41;;;;;;;2.35;0.93;;;14.80;56.30;;;;;;6209767;22;20363;-81
2023/04/12 11:27:09;;;;;;;3.95;1.58;;;14.90;56.30;;;;;;6235693;22;20019;-82
2023/04/12 11:29:36;;;;;;;3.25;0.93;;;15.00;57.70;;;;;;6210303;22;20015;-81
2023/04/12 11:32:06;;;;;;;6.72;1.05;;;15.30;57.90;;;;;;6209096;22;20579;-80
2023/04/12 11:34:35;;;;;;;1.40;0.50;;;15.30;56.70;;;;;;6209284;22;20443;-79
2023/04/12 11:37:06;;;;;;;5.28;1.90;;;15.10;56.40;;;;;;6211593;22;20020;-79
2023/04/12 11:39:44;;;;;;;33.00;17.25;;;15.20;55.90;;;;;;6210215;22;20061;-81
2023/04/12 11:42:14;;;;;;;3.00;1.40;;;15.60;57.10;;;;;;6232080;22;20020;-82
2023/04/12 11:44:45;;;;;;;5.40;2.72;;;15.60;57.90;;;;;;6212835;22;20098;-82
2023/04/12 11:47:18;;;;;;;1.80;0.67;;;15.70;57.10;;;;;;6209240;22;20449;-82
2023/04/12 11:49:50;;;;;;;3.25;1.77;;;15.70;56.40;;;;;;6211496;22;20045;-81
2023/04/12 11:52:20;;;;;;;3.88;1.20;;;15.70;56.20;;;;;;6210624;22;20027;-82
2023/04/12 11:54:49;;;;;;;3.20;0.50;;;15.80;54.50;;;;;;6206095;22;20031;-82
2023/04/12 11:57:18;;;;;;;1.52;0.50;;;15.60;53.10;;;;;;6211218;22;20035;-82
2023/04/12 11:59:47;;;;;;;2.85;0.73;;;14.90;53.10;;;;;;6237126;22;20023;-82
2023/04/12 12:02:19;;;;;;;1.95;0.70;;;15.30;54.70;;;;;;6207925;22;20438;-82
2023/04/12 12:04:50;;;;;;;3.10;0.57;;;15.80;57.80;;;;;;6233882;22;20024;-82
2023/04/12 12:07:19;;;;;;;2.80;0.80;;;16.10;55.50;;;;;;6207072;22;20069;-79
2023/04/12 12:09:48;;;;;;;1.50;1.00;;;15.90;55.10;;;;;;6210929;22;20047;-82
2023/04/12 12:12:17;;;;;;;2.35;0.60;;;15.70;56.20;;;;;;6218819;22;20128;-82
2023/04/12 12:14:46;;;;;;;3.10;0.70;;;15.60;54.40;;;;;;6215410;22;20053;-82
2023/04/12 12:17:16;;;;;;;2.67;1.40;;;15.90;55.00;;;;;;6214013;22;20016;-82
2023/04/12 12:19:45;;;;;;;28.35;21.45;;;15.90;53.70;;;;;;6239851;22;20034;-81
2023/04/12 12:22:17;;;;;;;3.72;0.90;;;15.60;53.70;;;;;;6244511;22;20027;-83
2023/04/12 12:25:05;;;;;;;2.00;0.75;;;15.60;53.70;;;;;;6210869;22;20079;-81
2023/04/12 12:27:36;;;;;;;3.10;0.73;;;15.70;54.10;;;;;;6209649;22;20024;-82
2023/04/12 12:30:06;;;;;;;3.63;0.60;;;15.90;53.90;;;;;;6211742;22;20019;-81
2023/04/12 12:32:36;;;;;;;1.70;0.80;;;15.70;54.00;;;;;;6213067;22;20130;-82
2023/04/12 12:35:14;;;;;;;2.10;0.77;;;15.90;54.40;;;;;;6208091;22;20050;-82
2023/04/12 12:37:57;;;;;;;1.30;0.52;;;15.70;53.40;;;;;;6205510;22;20023;-82
2023/04/12 12:40:31;;;;;;;2.25;0.43;;;16.00;54.00;;;;;;6212769;22;20474;-83
2023/04/12 12:42:59;;;;;;;2.15;0.70;;;15.70;53.70;;;;;;6206688;22;20024;-82
2023/04/12 12:45:30;;;;;;;2.13;0.70;;;16.00;53.70;;;;;;6209106;22;20447;-82
2023/04/12 12:47:58;;;;;;;2.35;0.70;;;16.20;54.50;;;;;;6210945;22;20022;-82
2023/04/12 12:50:28;;;;;;;1.85;0.60;;;16.10;53.50;;;;;;6212061;22;20066;-82
2023/04/12 12:52:56;;;;;;;3.50;0.60;;;16.10;54.10;;;;;;6207693;22;20486;-80
2023/04/12 12:55:23;;;;;;;4.72;0.77;;;16.10;52.90;;;;;;6233214;22;20023;-82
2023/04/12 12:57:52;;;;;;;2.40;1.00;;;15.90;53.40;;;;;;6188151;22;20027;-80
2023/04/12 13:00:34;;;;;;;1.42;0.52;;;16.10;53.80;;;;;;6209975;22;20023;-81
2023/04/12 13:03:01;;;;;;;3.50;2.38;;;16.30;53.70;;;;;;6204340;22;20106;-79
2023/04/12 13:05:29;;;;;;;1.95;0.57;;;16.40;53.10;;;;;;6210002;22;20142;-80
2023/04/12 13:07:59;;;;;;;3.13;1.13;;;16.20;53.00;;;;;;6211451;22;20398;-83
2023/04/12 13:10:28;;;;;;;3.30;0.38;;;16.20;54.00;;;;;;6209949;22;20019;-82
2023/04/12 13:12:55;;;;;;;1.05;0.47;;;16.40;53.20;;;;;;6208247;22;20023;-82
2023/04/12 13:15:22;;;;;;;2.22;0.40;;;16.10;51.90;;;;;;6208975;22;20430;-82
2023/04/12 13:17:51;;;;;;;1.50;0.30;;;16.40;52.00;;;;;;6235026;22;20424;-81
2023/04/12 13:20:19;;;;;;;2.10;0.40;;;16.40;51.80;;;;;;6233792;22;20055;-82
2023/04/12 13:22:47;;;;;;;2.00;0.40;;;16.60;52.40;;;;;;6210400;22;20020;-82
2023/04/12 13:25:14;;;;;;;3.38;0.38;;;16.40;51.10;;;;;;6232317;22;20066;-82
2023/04/12 13:27:41;;;;;;;2.58;0.47;;;16.40;51.60;;;;;;6210230;22;20015;-81
2023/04/12 13:30:11;;;;;;;2.60;1.20;;;16.40;52.00;;;;;;6209377;22;20016;-82
2023/04/12 13:32:39;;;;;;;2.00;0.40;;;16.60;51.90;;;;;;6212485;22;20074;-82
2023/04/12 13:35:11;;;;;;;2.22;0.63;;;16.80;52.20;;;;;;6211435;22;20099;-82
2023/04/12 13:37:40;;;;;;;2.90;0.43;;;16.50;51.90;;;;;;6212101;22;20077;-83
2023/04/12 13:40:10;;;;;;;1.98;0.30;;;16.70;51.60;;;;;;6236187;22;20023;-83
2023/04/12 13:42:38;;;;;;;1.42;0.30;;;16.40;51.20;;;;;;6187030;22;20446;-82
2023/04/12 13:45:06;;;;;;;2.83;0.40;;;16.40;50.80;;;;;;6214343;22;20115;-82
2023/04/12 13:47:34;;;;;;;2.35;1.02;;;16.20;50.90;;;;;;6209954;22;20134;-80
2023/04/12 13:50:01;;;;;;;2.85;1.00;;;16.40;51.50;;;;;;6206535;22;20053;-82
2023/04/12 13:52:28;;;;;;;1.60;0.50;;;16.50;51.00;;;;;;6236876;22;20031;-82
2023/04/12 13:54:58;;;;;;;1.45;0.77;;;16.50;50.70;;;;;;6209030;22;20118;-82
2023/04/12 13:57:25;;;;;;;1.20;0.60;;;16.70;51.20;;;;;;6207917;22;20054;-82
2023/04/12 13:59:53;;;;;;;1.88;0.47;;;16.60;50.90;;;;;;6214113;22;20438;-82
2023/04/12 14:02:20;;;;;;;2.95;0.75;;;16.40;50.70;;;;;;6208033;22;20027;-82
2023/04/12 14:04:52;;;;;;;3.92;0.50;;;16.40;50.80;;;;;;6211062;22;20025;-81
2023/04/12 14:07:20;;;;;;;1.52;0.30;;;16.50;50.90;;;;;;6237313;22;20023;-81
2023/04/12 14:09:47;;;;;;;2.53;0.50;;;16.40;50.90;;;;;;6210894;22;20510;-82
2023/04/12 14:12:14;;;;;;;1.35;0.60;;;16.50;50.60;;;;;;6214197;22;20024;-82
2023/04/12 14:14:42;;;;;;;1.90;0.50;;;16.30;49.10;;;;;;6239159;22;20077;-82
2023/04/12 14:17:10;;;;;;;1.15;0.40;;;16.40;49.80;;;;;;6213481;22;20019;-82
2023/04/12 14:19:38;;;;;;;1.38;0.63;;;16.40;48.40;;;;;;6213569;22;20073;-81
2023/04/12 14:22:05;;;;;;;1.70;0.63;;;16.40;49.20;;;;;;6211458;22;20027;-81
2023/04/12 14:24:32;;;;;;;1.88;0.55;;;16.50;49.00;;;;;;6212540;22;20351;-80
2023/04/12 14:27:01;;;;;;;1.13;0.28;;;16.50;49.20;;;;;;6208814;22;20422;-81
2023/04/12 14:29:28;;;;;;;1.25;0.20;;;16.60;50.70;;;;;;6211075;22;20020;-82
2023/04/12 14:31:55;;;;;;;0.60;0.30;;;16.70;51.10;;;;;;6210623;22;20595;-80
2023/04/12 14:34:22;;;;;;;3.33;0.30;;;16.50;48.70;;;;;;6211588;22;20069;-80
2023/04/12 14:36:49;;;;;;;0.88;0.30;;;16.40;50.30;;;;;;6209230;22;20477;-82
2023/04/12 14:39:17;;;;;;;1.33;0.20;;;16.80;49.70;;;;;;6207120;22;20027;-82
2023/04/12 14:41:44;;;;;;;1.45;0.45;;;16.30;49.60;;;;;;6211099;22;20032;-82
2023/04/12 14:44:11;;;;;;;2.58;0.60;;;16.30;49.20;;;;;;6209283;22;20435;-79
2023/04/12 14:46:39;;;;;;;2.15;0.45;;;16.20;49.30;;;;;;6208430;22;20059;-81
2023/04/12 14:49:06;;;;;;;1.98;0.22;;;16.40;50.70;;;;;;6207048;22;20027;-78
2023/04/12 14:51:33;;;;;;;1.17;0.45;;;16.40;48.90;;;;;;6210194;22;20095;-79
2023/04/12 14:54:00;;;;;;;1.75;0.25;;;16.30;48.40;;;;;;6208629;22;20035;-79
2023/04/12 14:56:28;;;;;;;3.42;0.70;;;16.20;48.10;;;;;;6205935;22;20431;-79
2023/04/12 14:58:57;;;;;;;1.35;0.30;;;16.30;48.40;;;;;;6237307;22;20445;-78
2023/04/12 15:01:25;;;;;;;1.00;0.30;;;16.00;46.40;;;;;;6208545;22;20023;-79
2023/04/12 15:03:53;;;;;;;2.28;0.60;;;16.10;47.80;;;;;;6207140;22;20033;-77
2023/04/12 15:06:22;;;;;;;1.23;0.30;;;16.10;47.50;;;;;;6236575;22;20427;-80
2023/04/12 15:08:53;;;;;;;3.25;0.60;;;16.00;47.00;;;;;;6206989;22;20459;-80
2023/04/12 15:11:25;;;;;;;1.77;0.63;;;16.10;49.10;;;;;;6206894;22;20283;-79
2023/04/12 15:13:53;;;;;;;0.70;0.20;;;16.10;48.50;;;;;;6208056;22;20030;-80
2023/04/12 15:16:21;;;;;;;1.00;0.20;;;16.00;48.10;;;;;;6212217;22;20445;-80
2023/04/12 15:18:50;;;;;;;1.70;0.77;;;16.00;48.60;;;;;;6207904;22;20027;-79
2023/04/12 15:21:17;;;;;;;3.50;0.40;;;15.80;48.00;;;;;;6206631;22;20522;-79
2023/04/12 15:23:45;;;;;;;0.63;0.20;;;15.90;49.00;;;;;;6209471;22;20023;-79
2023/04/12 15:26:13;;;;;;;1.20;0.60;;;15.90;49.10;;;;;;6231490;22;20047;-80
2023/04/12 15:28:41;;;;;;;1.60;0.30;;;16.00;49.80;;;;;;6207737;22;20023;-80
2023/04/12 15:31:10;;;;;;;2.08;0.30;;;16.00;50.00;;;;;;6214753;22;20019;-80
2023/04/12 15:33:38;;;;;;;3.03;0.85;;;15.90;48.50;;;;;;6207262;22;20024;-79
2023/04/12 15:36:05;;;;;;;2.08;0.30;;;15.90;49.20;;;;;;6206934;22;20031;-79
2023/04/12 15:38:40;;;;;;;0.73;0.38;;;15.80;47.90;;;;;;6206657;22;20473;-80
2023/04/12 15:41:08;;;;;;;1.00;0.20;;;15.80;48.10;;;;;;6206572;22;20500;-79
2023/04/12 15:43:35;;;;;;;2.95;0.30;;;15.80;47.50;;;;;;6207391;22;20030;-79
2023/04/12 15:46:03;;;;;;;1.95;0.40;;;15.70;47.10;;;;;;6231954;22;20066;-79
2023/04/12 15:48:30;;;;;;;1.02;0.38;;;15.60;48.80;;;;;;6232814;22;20015;-80
2023/04/12 15:50:59;;;;;;;2.60;0.70;;;15.60;48.80;;;;;;6207505;22;20126;-80
2023/04/12 15:53:26;;;;;;;1.50;0.40;;;15.60;48.60;;;;;;6209230;22;20267;-80
2023/04/12 15:55:54;;;;;;;1.95;0.65;;;15.60;49.20;;;;;;6205735;22;20028;-80
2023/04/12 15:58:26;;;;;;;2.97;0.40;;;15.70;49.90;;;;;;6200011;23;20048;-80
2023/04/12 16:00:53;;;;;;;2.50;0.50;;;15.60;49.20;;;;;;6198105;23;20134;-79
2023/04/12 16:03:24;;;;;;;1.88;0.40;;;15.50;49.60;;;;;;6228881;23;20427;-79
2023/04/12 16:05:52;;;;;;;3.35;0.50;;;15.50;49.80;;;;;;6177940;23;20427;-80
2023/04/12 16:08:20;;;;;;;1.95;0.60;;;15.50;49.70;;;;;;6205090;23;20024;-79
2023/04/12 16:10:51;;;;;;;1.85;0.40;;;15.40;49.30;;;;;;6212043;23;20031;-80
2023/04/12 16:13:19;;;;;;;4.95;1.60;;;15.40;50.00;;;;;;6213404;23;20024;-79
2023/04/12 16:15:47;;;;;;;1.48;0.50;;;15.40;49.60;;;;;;6183533;23;20031;-79
2023/04/12 16:18:16;;;;;;;2.65;0.70;;;15.30;48.90;;;;;;6173441;23;20115;-80
2023/04/12 16:20:44;;;;;;;1.73;0.90;;;15.20;49.00;;;;;;6198168;23;20372;-80
2023/04/12 16:23:11;;;;;;;1.88;0.52;;;15.10;48.70;;;;;;6200793;23;20027;-80
2023/04/12 16:25:39;;;;;;;2.53;0.80;;;15.10;49.30;;;;;;6171346;23;20573;-80
2023/04/12 16:28:06;;;;;;;2.67;0.88;;;15.00;49.60;;;;;;6177988;23;20047;-80
2023/04/12 16:30:35;;;;;;;2.67;0.90;;;14.90;49.30;;;;;;6174614;23;20016;-80
2023/04/12 16:33:02;;;;;;;3.35;1.30;;;14.60;49.70;;;;;;6202786;23;20034;-81
2023/04/12 16:35:30;;;;;;;5.05;1.38;;;14.60;49.40;;;;;;6212572;22;20028;-80
2023/04/12 16:37:57;;;;;;;2.50;1.25;;;14.40;49.60;;;;;;6243470;22;20023;-80
2023/04/12 16:40:25;;;;;;;1.75;0.90;;;14.10;49.40;;;;;;6209310;22;20466;-80
2023/04/12 16:42:53;;;;;;;2.65;0.77;;;14.30;50.10;;;;;;6205113;22;20457;-80
2023/04/12 16:45:21;;;;;;;2.38;0.60;;;14.20;49.80;;;;;;6207772;22;20026;-80
2023/04/12 16:47:48;;;;;;;1.35;0.60;;;14.10;51.40;;;;;;6206622;22;20026;-80
2023/04/12 16:50:16;;;;;;;2.58;1.10;;;14.10;51.70;;;;;;6206714;22;20560;-80
2023/04/12 16:52:43;;;;;;;3.50;1.02;;;14.00;52.30;;;;;;6205341;22;20334;-81
2023/04/12 16:55:11;;;;;;;2.67;1.40;;;13.90;52.60;;;;;;6218117;22;20132;-81
2023/04/12 16:57:40;;;;;;;6.22;2.25;;;13.80;52.00;;;;;;6205615;22;20446;-80
2023/04/12 17:00:19;;;;;;;2.35;1.02;;;13.70;52.90;;;;;;6230652;22;20026;-80
2023/04/12 17:02:52;;;;;;;40.20;22.98;;;13.60;53.10;;;;;;6232975;22;20023;-80
2023/04/12 17:05:20;;;;;;;;;;;13.50;53.10;;;;;;6236243;22;20356;-80
2023/04/12 17:07:52;;;;;;;43.00;29.17;;;13.40;54.00;;;;;;6210343;22;19919;-80
2023/04/12 17:10:23;;;;;;;29.88;20.05;;;13.40;54.10;;;;;;6234151;22;20020;-80
2023/04/12 17:12:54;;;;;;;21.38;14.45;;;13.30;54.60;;;;;;6207282;22;20027;-80
2023/04/12 17:15:24;;;;;;;17.23;10.55;;;13.20;55.10;;;;;;6231379;22;20039;-80
2023/04/12 17:17:58;;;;;;;15.60;8.68;;;13.10;55.00;;;;;;6234406;22;20386;-80
2023/04/12 17:20:26;;;;;;;11.30;6.07;;;13.00;55.60;;;;;;6209607;22;20514;-80
2023/04/12 17:22:55;;;;;;;53.05;24.15;;;13.00;55.60;;;;;;6208070;22;20027;-80
2023/04/12 17:25:23;;;;;;;22.45;10.75;;;12.80;55.40;;;;;;6209456;22;20451;-80
2023/04/12 17:27:53;;;;;;;34.58;15.20;;;12.80;56.00;;;;;;6234587;22;20058;-80
2023/04/12 17:30:22;;;;;;;38.40;16.23;;;12.70;55.90;;;;;;6210132;22;20024;-80
2023/04/12 17:32:50;;;;;;;11.85;5.95;;;12.60;55.60;;;;;;6234075;22;20023;-80
2023/04/12 17:35:19;;;;;;;14.50;6.75;;;12.50;56.50;;;;;;6210409;22;20471;-80
2023/04/12 17:37:48;;;;;;;17.70;7.55;;;12.50;56.10;;;;;;6234329;22;20026;-80
2023/04/12 17:40:16;;;;;;;124.68;43.67;;;12.40;56.50;;;;;;6209586;22;20020;-80
2023/04/12 17:42:43;;;;;;;52.00;24.58;;;12.30;55.90;;;;;;6210066;22;20314;-80
2023/04/12 17:45:13;;;;;;;70.30;30.27;;;12.30;55.40;;;;;;6210813;22;20015;-81
2023/04/12 17:47:41;;;;;;;70.65;27.33;;;12.20;56.50;;;;;;6209386;22;20434;-81
2023/04/12 17:50:10;;;;;;;48.17;19.88;;;12.10;57.80;;;;;;6209941;22;20042;-81
2023/04/12 17:52:37;;;;;;;35.55;15.05;;;12.10;60.20;;;;;;6209319;22;20477;-81
2023/04/12 17:55:07;;;;;;;31.35;11.82;;;12.00;62.00;;;;;;6232501;22;20359;-81
2023/04/12 17:57:35;;;;;;;20.38;8.75;;;11.90;62.70;;;;;;6236694;22;20046;-81
2023/04/12 18:00:10;;;;;;;13.80;5.30;;;11.90;62.60;;;;;;6235058;22;20028;-81
2023/04/12 18:02:39;;;;;;;13.18;5.07;;;11.80;62.40;;;;;;6235271;22;20062;-81
2023/04/12 18:05:09;;;;;;;10.60;4.70;;;11.70;64.50;;;;;;6208370;22;20447;-81
2023/04/12 18:07:38;;;;;;;10.02;4.07;;;11.60;64.90;;;;;;6233765;22;20023;-81
2023/04/12 18:10:26;;;;;;;13.93;3.97;;;11.60;66.10;;;;;;6202703;23;20021;-81
2023/04/12 18:12:54;;;;;;;12.70;3.28;;;11.50;67.00;;;;;;6173003;23;20506;-81
2023/04/12 18:15:23;;;;;;;17.73;6.15;;;11.40;66.00;;;;;;6173152;23;20770;-81
2023/04/12 18:17:50;;;;;;;13.57;4.45;;;11.40;64.20;;;;;;6176673;23;20035;-81
2023/04/12 18:20:19;;;;;;;16.00;4.57;;;11.30;65.90;;;;;;6174951;23;20056;-81
2023/04/12 18:22:46;;;;;;;15.55;4.45;;;11.30;67.40;;;;;;6173737;23;20044;-81
2023/04/12 18:25:15;;;;;;;24.95;6.20;;;11.20;68.00;;;;;;6173942;23;20542;-81
2023/04/12 18:27:47;;;;;;;20.98;6.28;;;11.20;68.60;;;;;;6151162;23;20020;-81
2023/04/12 18:30:17;;;;;;;23.48;6.28;;;11.10;70.20;;;;;;6173648;23;20084;-81
2023/04/12 18:32:46;;;;;;;40.28;9.65;;;11.10;70.70;;;;;;6179520;23;20128;-81
2023/04/12 18:35:14;;;;;;;40.10;9.68;;;11.00;69.80;;;;;;6174595;23;20028;-82
2023/04/12 18:37:43;;;;;;;41.13;10.93;;;11.00;70.80;;;;;;6174190;23;20060;-81
2023/04/12 18:40:14;;;;;;;32.17;9.35;;;10.90;71.40;;;;;;6173813;23;20107;-82
2023/04/12 18:42:44;;;;;;;26.55;8.05;;;10.90;72.20;;;;;;6176246;23;20034;-81
2023/04/12 18:45:18;;;;;;;19.67;5.13;;;10.80;72.90;;;;;;6123672;23;20066;-82
2023/04/12 18:47:51;;;;;;;13.32;4.47;;;10.80;71.00;;;;;;6207091;22;20020;-82
2023/04/12 18:50:41;;;;;;;24.17;4.75;;;10.80;70.20;;;;;;6143374;23;20534;-82
2023/04/12 18:53:09;;;;;;;20.17;5.78;;;10.70;71.70;;;;;;6113725;23;20354;-82
2023/04/12 18:55:38;;;;;;;14.88;4.95;;;10.70;73.70;;;;;;6161684;23;20115;-82
2023/04/12 18:58:07;;;;;;;16.42;4.20;;;10.60;74.70;;;;;;6166308;23;20028;-82
2023/04/12 19:00:35;;;;;;;14.73;3.83;;;10.60;74.60;;;;;;6136480;23;20029;-81
2023/04/12 19:03:03;;;;;;;14.30;3.97;;;10.60;74.40;;;;;;6161631;23;20122;-82
2023/04/12 19:05:34;;;;;;;12.32;4.07;;;10.50;74.70;;;;;;6138831;23;20441;-82
2023/04/12 19:08:04;;;;;;;11.07;3.58;;;10.50;75.40;;;;;;6155860;22;20641;-82
2023/04/12 19:10:33;;;;;;;12.00;4.30;;;10.40;75.70;;;;;;6208789;22;20020;-82
2023/04/12 19:13:03;;;;;;;12.63;3.83;;;10.40;76.40;;;;;;6231486;22;20023;-81
2023/04/12 19:15:34;;;;;;;9.18;3.88;;;10.40;77.00;;;;;;6171727;23;20681;-82
2023/04/12 19:18:02;;;;;;;13.40;3.40;;;10.30;77.00;;;;;;6180995;23;20052;-82
2023/04/12 19:20:31;;;;;;;15.30;5.25;;;10.20;77.00;;;;;;6180987;23;20025;-82
2023/04/12 19:22:59;;;;;;;20.50;6.90;;;10.20;76.30;;;;;;6181041;23;20029;-82
2023/04/12 19:25:31;;;;;;;18.05;7.25;;;10.20;75.40;;;;;;6180085;23;20103;-82
2023/04/12 19:28:00;;;;;;;17.50;7.15;;;10.20;75.50;;;;;;6156955;23;20060;-82
2023/04/12 19:30:30;;;;;;;18.58;7.03;;;10.20;75.40;;;;;;6156101;23;20021;-82
2023/04/12 19:32:58;;;;;;;21.40;7.57;;;10.10;76.30;;;;;;6181105;23;20025;-82
2023/04/12 19:35:31;;;;;;;21.20;9.50;;;10.10;78.80;;;;;;6146366;23;20040;-82
2023/04/12 19:37:59;;;;;;;27.55;10.68;;;10.00;78.70;;;;;;6121741;23;20121;-82
2023/04/12 19:40:40;;;;;;;22.52;9.48;;;10.00;79.40;;;;;;6097819;23;20022;-82
2023/04/12 19:43:08;;;;;;;20.88;7.47;;;10.00;79.60;;;;;;6121741;23;20026;-82
2023/04/12 19:45:39;;;;;;;16.60;6.13;;;9.90;78.50;;;;;;6120490;23;20025;-82
2023/04/12 19:48:07;;;;;;;15.38;5.97;;;9.90;77.80;;;;;;6096614;23;20385;-82
2023/04/12 19:50:35;;;;;;;12.95;5.07;;;9.90;77.90;;;;;;6119883;23;20489;-82
2023/04/12 19:53:05;;;;;;;12.20;4.75;;;9.90;78.60;;;;;;6121871;23;20049;-82
2023/04/12 19:55:33;;;;;;;13.68;5.18;;;9.80;78.50;;;;;;6120483;23;20762;-82
2023/04/12 19:58:02;;;;;;;17.05;6.90;;;9.80;78.40;;;;;;6121712;23;20029;-82
2023/04/12 20:00:30;;;;;;;15.82;7.05;;;9.70;79.00;;;;;;6121699;23;20029;-82
2023/04/12 20:02:58;;;;;;;16.80;6.50;;;9.60;78.70;;;;;;6121639;23;20022;-82
2023/04/12 20:05:27;;;;;;;14.88;6.30;;;9.60;76.70;;;;;;6121493;22;20968;-82
2023/04/12 20:07:59;;;;;;;17.63;7.55;;;9.70;77.20;;;;;;6249282;22;20016;-82
2023/04/12 20:10:28;;;;;;;16.20;7.05;;;9.60;77.20;;;;;;6222324;22;20099;-82
2023/04/12 20:12:55;;;;;;;17.15;7.95;;;9.60;76.50;;;;;;6221657;22;20020;-82
2023/04/12 20:15:23;;;;;;;20.75;8.13;;;9.50;76.50;;;;;;6223001;22;20035;-82